Snow/Ice From: 16-12-2017 16:00 Until: 17-12-2017 16:00 warning for: Snow/Ice Level: Yellow info button

Although rather usual in this region, locally or potentially dangerous phenomena are expected. (such as local winds, summer thunderstorms, rising streams or high waves) Be aware and pay attention to the latest weather updates, especially if you carry out activities exposed to weather or close to a stream or shoreline. 


Meteo18 Weather Cam more information Meteo18 Weather Cam


Thunder radar more information blitzortung!


warning for Snow/Ice more information rain snow radar


Visit our other weather sites:

Template documentation
and downloads

And another site



Weather Underground History page Text

Daily Summary for October 13, 2017 Units:  English    Metric   Both
« Previous Day
Next Day »
Daily Weekly Monthly Yearly Custom
  High: Low: Average:
Temperature: 70 °F 47.1 °F 57.4 °F
Dew Point: 58.8 °F 46.4 °F 53.2 °F
Humidity: 98 % 63 % 88 %
Wind Speed: 6 mph 0 mph 0.5 mph
Wind Gust: 9 mph - -
Wind:- - SSE
Pressure: 30.4 in 30.3 in -
Precipitation: 0.02 in    
Historical Graphs
 
 
Tabular Data for October 13, 2017
Time Temperature Dew Point Pressure Wind Wind Speed Wind Gust Humidity Rainfall Rate (Hourly)
00:02 52.9 °F 52 °F 30.4 in Calm     97 % 0 in
00:12 53.2 °F 52.3 °F 30.4 in Calm     97 % 0 in
00:17 52.9 °F 52 °F 30.4 in Calm     97 % 0 in
00:22 52.9 °F 52 °F 30.4 in Calm     97 % 0 in
00:27 52.3 °F 51.3 °F 30.4 in Calm     96 % 0 in
00:32 52.2 °F 51.3 °F 30.4 in Calm     97 % 0 in
00:37 52.3 °F 51.4 °F 30.4 in Calm     97 % 0 in
00:42 52.7 °F 51.8 °F 30.4 in Calm     97 % 0.01 in
00:52 52.2 °F 51.3 °F 30.4 in Calm     97 % 0.01 in
01:02 51.6 °F 50.7 °F 30.4 in Calm     97 % 0.01 in
01:12 51.3 °F 50.4 °F 30.4 in Calm     97 % 0.01 in
01:17 51.1 °F 50.2 °F 30.4 in Calm     97 % 0.01 in
01:22 51.1 °F 50.2 °F 30.4 in Calm     97 % 0.01 in
01:27 50.9 °F 50 °F 30.4 in Calm     97 % 0.01 in
01:32 50.9 °F 50 °F 30.4 in Calm     97 % 0.01 in
01:37 50.7 °F 49.8 °F 30.4 in Calm     97 % 0.01 in
01:42 50.5 °F 49.6 °F 30.4 in Calm     97 % 0 in
01:47 50.5 °F 49.6 °F 30.4 in Calm     97 % 0 in
01:52 50.4 °F 49.5 °F 30.4 in Calm     97 % 0 in
01:57 50.4 °F 49.5 °F 30.4 in Calm     97 % 0 in
02:02 50.5 °F 49.6 °F 30.4 in Calm     97 % 0 in
02:12 50.2 °F 49.3 °F 30.4 in Calm     97 % 0 in
02:17 50.5 °F 49.6 °F 30.4 in Calm     97 % 0 in
02:22 50.5 °F 49.6 °F 30.4 in Calm     97 % 0 in
02:27 51.1 °F 50.5 °F 30.4 in Calm     98 % 0 in
02:32 50.9 °F 50 °F 30.4 in Calm     97 % 0 in
02:42 50.2 °F 49.3 °F 30.4 in Calm     97 % 0 in
02:47 50.2 °F 49.3 °F 30.4 in Calm     97 % 0 in
02:52 49.8 °F 48.9 °F 30.4 in Calm     97 % 0 in
02:57 50 °F 49.1 °F 30.4 in Calm     97 % 0 in
03:02 49.8 °F 48.9 °F 30.4 in Calm     97 % 0 in
03:12 50.5 °F 50 °F 30.4 in Calm     98 % 0 in
03:17 50.5 °F 50 °F 30.4 in Calm     98 % 0 in
03:22 50.4 °F 49.8 °F 30.4 in Calm     98 % 0 in
03:27 49.8 °F 48.9 °F 30.4 in Calm     97 % 0 in
03:37 49.6 °F 48.7 °F 30.4 in Calm     97 % 0 in
03:42 49.8 °F 48.9 °F 30.4 in Calm     97 % 0 in
03:47 49.5 °F 48.6 °F 30.4 in Calm     97 % 0 in
03:52 49.6 °F 48.7 °F 30.4 in Calm     97 % 0 in
03:57 49.6 °F 48.7 °F 30.4 in Calm     97 % 0 in
04:02 50.2 °F 49.6 °F 30.4 in Calm     98 % 0 in
04:12 50.2 °F 49.6 °F 30.4 in Calm     98 % 0 in
04:17 50.2 °F 49.6 °F 30.4 in Calm     98 % 0 in
04:22 50.2 °F 49.6 °F 30.4 in Calm     98 % 0 in
04:32 50.2 °F 49.6 °F 30.4 in Calm     98 % 0 in
04:42 49.8 °F 48.9 °F 30.4 in Calm     97 % 0 in
04:47 49.6 °F 48.7 °F 30.4 in Calm     97 % 0 in
04:52 49.6 °F 48.7 °F 30.4 in Calm     97 % 0 in
04:57 49.5 °F 48.6 °F 30.3 in Calm     97 % 0 in
05:02 49.6 °F 48.7 °F 30.4 in Calm     97 % 0 in
05:07 49.8 °F 49.3 °F 30.3 in Calm     98 % 0 in
05:12 50.2 °F 49.6 °F 30.4 in Calm     98 % 0 in
05:22 50.2 °F 49.6 °F 30.3 in Calm     98 % 0 in
05:32 49.5 °F 48.6 °F 30.3 in Calm     97 % 0 in
05:42 49.1 °F 48.2 °F 30.4 in Calm     97 % 0 in
05:47 49.3 °F 48.4 °F 30.4 in Calm     97 % 0 in
05:52 48.9 °F 48 °F 30.4 in Calm     97 % 0 in
05:57 48.4 °F 47.5 °F 30.4 in Calm     97 % 0 in
06:02 48 °F 47.1 °F 30.4 in Calm     97 % 0 in
06:12 48.6 °F 48 °F 30.3 in Calm     98 % 0 in
06:17 48.6 °F 48 °F 30.3 in Calm     98 % 0 in
06:22 48.7 °F 48.2 °F 30.4 in Calm     98 % 0 in
06:27 48.6 °F 48 °F 30.4 in Calm     98 % 0 in
06:32 48.6 °F 48 °F 30.4 in Calm     98 % 0 in
06:37 48.6 °F 48 °F 30.4 in Calm     98 % 0 in
06:47 48.2 °F 47.7 °F 30.4 in Calm     98 % 0 in
06:52 48 °F 47.1 °F 30.4 in Calm     97 % 0 in
07:02 48.7 °F 48.2 °F 30.4 in Calm     98 % 0.01 in
07:12 48.4 °F 47.8 °F 30.3 in Calm     98 % 0.01 in
07:17 48 °F 47.1 °F 30.3 in Calm     97 % 0.01 in
07:22 47.8 °F 46.9 °F 30.3 in Calm     97 % 0.01 in
07:32 47.8 °F 46.9 °F 30.3 in Calm     97 % 0.01 in
07:42 48.6 °F 48 °F 30.3 in Calm     98 % 0.01 in
07:47 48.6 °F 48 °F 30.3 in Calm   1 mph 98 % 0.01 in
07:52 48.6 °F 48 °F 30.3 in Calm   1 mph 98 % 0.01 in
07:57 48.4 °F 47.8 °F 30.3 in Calm   2 mph 98 % 0 in
08:02 47.8 °F 47.3 °F 30.3 in North 1 mph 2 mph 98 % 0 in
08:12 47.1 °F 46.4 °F 30.4 in Calm   2 mph 97 % 0 in
08:17 47.1 °F 46.4 °F 30.4 in Calm   2 mph 97 % 0 in
08:22 47.1 °F 46.4 °F 30.4 in Calm   2 mph 97 % 0 in
08:27 47.1 °F 46.4 °F 30.4 in Calm     97 % 0 in
08:32 47.1 °F 46.4 °F 30.4 in Calm     97 % 0 in
08:42 47.3 °F 46.8 °F 30.4 in Calm     98 % 0 in
08:52 48 °F 47.5 °F 30.4 in Calm     98 % 0 in
09:02 48.7 °F 48.2 °F 30.4 in Calm     98 % 0 in
09:07 49.3 °F 48.7 °F 30.4 in Calm     98 % 0 in
09:12 49.5 °F 48.9 °F 30.4 in Calm     98 % 0 in
09:17 50.2 °F 49.6 °F 30.4 in Calm     98 % 0 in
09:22 50.7 °F 50.2 °F 30.4 in Calm     98 % 0 in
09:32 51.3 °F 50.7 °F 30.4 in Calm     98 % 0 in
09:37 51.4 °F 50.9 °F 30.4 in Calm     98 % 0 in
09:42 51.8 °F 51.3 °F 30.4 in Calm     98 % 0 in
09:52 52.3 °F 51.8 °F 30.4 in Calm     98 % 0 in
09:57 52.5 °F 52 °F 30.4 in Calm     98 % 0 in
10:02 52.7 °F 52.2 °F 30.4 in Calm     98 % 0 in
10:12 52.9 °F 52.3 °F 30.4 in Calm     98 % 0 in
10:17 53.1 °F 52.5 °F 30.4 in Calm     98 % 0 in
10:22 53.4 °F 52.9 °F 30.4 in Calm     98 % 0 in
10:27 54 °F 53.4 °F 30.4 in Calm     98 % 0 in
10:32 54.7 °F 54.1 °F 30.4 in Calm     98 % 0 in
10:42 54.7 °F 54.1 °F 30.4 in Calm   1 mph 98 % 0 in
10:52 55.8 °F 55.2 °F 30.4 in Calm   1 mph 98 % 0 in
10:57 56.1 °F 55.6 °F 30.4 in Calm   2 mph 98 % 0 in
11:02 56.3 °F 55.8 °F 30.4 in Calm   2 mph 98 % 0 in
11:12 56.5 °F 55.9 °F 30.4 in Calm   2 mph 98 % 0 in
11:17 56.1 °F 55.2 °F 30.4 in Calm     97 % 0 in
11:22 56.5 °F 55.6 °F 30.4 in Calm     97 % 0 in
11:32 57 °F 56.5 °F 30.4 in Calm     98 % 0 in
11:42 57.6 °F 56.7 °F 30.4 in ENE 3 mph   97 % 0 in
11:52 58.5 °F 57.6 °F 30.4 in Calm   3 mph 97 % 0 in
11:57 58.8 °F 57.9 °F 30.4 in Calm   5 mph 97 % 0 in
12:02 59.2 °F 57.7 °F 30.4 in ENE 2 mph 5 mph 95 % 0 in
12:12 60.3 °F 57.6 °F 30.4 in East 2 mph 6 mph 91 % 0 in
12:17 60.4 °F 57.2 °F 30.4 in Calm   6 mph 89 % 0 in
12:22 61 °F 57 °F 30.4 in East 1 mph 5 mph 87 % 0 in
12:32 62.1 °F 57.7 °F 30.4 in ESE 3 mph 4 mph 86 % 0 in
12:42 62.2 °F 57.4 °F 30.4 in SSE 1 mph 4 mph 84 % 0 in
12:52 63.1 °F 57.6 °F 30.4 in ESE 3 mph 6 mph 82 % 0 in
13:02 63.3 °F 57.4 °F 30.4 in East 3 mph 6 mph 81 % 0 in
13:12 63.9 °F 57.9 °F 30.4 in East 1 mph 6 mph 81 % 0 in
13:17 64 °F 57.7 °F 30.4 in Calm   6 mph 80 % 0 in
13:22 64.2 °F 57.9 °F 30.4 in ENE 1 mph 6 mph 80 % 0 in
13:32 65.1 °F 58.1 °F 30.4 in ENE 3 mph 6 mph 78 % 0 in
13:42 65.5 °F 58.5 °F 30.4 in ENE 2 mph 4 mph 78 % 0 in
13:47 65.5 °F 58.8 °F 30.4 in East 6 mph 7 mph 79 % 0 in
13:52 65.5 °F 58.1 °F 30.4 in ENE 3 mph 7 mph 77 % 0 in
14:02 65.8 °F 57.7 °F 30.3 in ESE 3 mph 8 mph 75 % 0 in
14:12 66.4 °F 57.4 °F 30.3 in East 1 mph 6 mph 73 % 0 in
14:17 66.6 °F 57.6 °F 30.3 in ENE 2 mph 9 mph 73 % 0 in
14:22 66.9 °F 57.6 °F 30.3 in East 5 mph 9 mph 72 % 0 in
14:27 67.1 °F 57.4 °F 30.3 in SE 1 mph 9 mph 71 % 0 in
14:32 67.5 °F 57.4 °F 30.3 in ESE 2 mph 7 mph 70 % 0 in
14:42 68.2 °F 58.1 °F 30.3 in East 4 mph 5 mph 70 % 0 in
14:47 68.2 °F 57.2 °F 30.3 in SSE 3 mph 6 mph 68 % 0 in
14:52 68.4 °F 57.7 °F 30.3 in Calm   6 mph 69 % 0 in
14:57 68.5 °F 57.9 °F 30.3 in ENE 3 mph 6 mph 69 % 0 in
15:02 68.4 °F 57.4 °F 30.3 in SSE 2 mph 5 mph 68 % 0 in
15:12 68.7 °F 57.7 °F 30.3 in Calm   5 mph 68 % 0 in
15:17 69.3 °F 57.9 °F 30.3 in ENE 1 mph 4 mph 67 % 0 in
15:22 69.4 °F 57.9 °F 30.3 in SSW 1 mph 4 mph 67 % 0 in
15:32 69.1 °F 57.2 °F 30.3 in Calm   4 mph 66 % 0 in
15:37 68.7 °F 57.7 °F 30.3 in Calm   4 mph 68 % 0 in
15:42 69.1 °F 58.1 °F 30.3 in Calm   4 mph 68 % 0 in
15:47 69.3 °F 57.9 °F 30.3 in East 2 mph 8 mph 67 % 0 in
15:52 69.6 °F 57.7 °F 30.3 in Calm   8 mph 66 % 0 in
15:57 69.4 °F 57.2 °F 30.3 in Calm   8 mph 65 % 0 in
16:02 69.4 °F 57.9 °F 30.3 in NE 1 mph 4 mph 67 % 0 in
16:07 69.3 °F 57.9 °F 30.3 in North 2 mph 4 mph 67 % 0 in
16:12 69.3 °F 57.4 °F 30.3 in Calm   4 mph 66 % 0 in
16:17 69.3 °F 57.4 °F 30.3 in ENE 2 mph 4 mph 66 % 0 in
16:22 69.3 °F 57.4 °F 30.3 in Calm   4 mph 66 % 0 in
16:32 69.4 °F 57.2 °F 30.3 in East 2 mph 3 mph 65 % 0 in
16:37 69.6 °F 57.4 °F 30.3 in Calm   5 mph 65 % 0 in
16:42 70 °F 57.2 °F 30.3 in East 2 mph 5 mph 64 % 0 in
16:47 69.8 °F 57.6 °F 30.3 in ENE 2 mph 5 mph 65 % 0 in
16:52 69.8 °F 57 °F 30.3 in ENE 2 mph 5 mph 64 % 0 in
16:57 70 °F 57.2 °F 30.3 in NE 2 mph 5 mph 64 % 0 in
17:02 69.8 °F 57 °F 30.3 in Calm   4 mph 64 % 0 in
17:12 70 °F 57.7 °F 30.3 in Calm   4 mph 65 % 0 in
17:17 70 °F 56.8 °F 30.3 in ENE 2 mph 3 mph 63 % 0 in
17:22 69.6 °F 56.5 °F 30.3 in ENE 3 mph 4 mph 63 % 0 in
17:32 69.4 °F 56.7 °F 30.3 in East 1 mph 3 mph 64 % 0 in
17:37 69.4 °F 57.2 °F 30.3 in Calm   3 mph 65 % 0 in
17:47 69.4 °F 56.7 °F 30.3 in East 1 mph 3 mph 64 % 0 in
17:52 69.4 °F 56.7 °F 30.3 in ENE 2 mph 3 mph 64 % 0 in
17:57 69.4 °F 56.7 °F 30.3 in ENE 1 mph 3 mph 64 % 0 in
18:02 69.4 °F 57.2 °F 30.3 in Calm   3 mph 65 % 0 in
18:07 69.4 °F 57.2 °F 30.3 in East 1 mph 3 mph 65 % 0 in
18:12 69.3 °F 57.4 °F 30.3 in Calm   2 mph 66 % 0 in
18:17 69.3 °F 57.4 °F 30.3 in Calm   1 mph 66 % 0 in
18:27 69.1 °F 57.7 °F 30.3 in Calm     67 % 0 in
18:32 69.1 °F 57.2 °F 30.3 in Calm     66 % 0 in
18:42 68.9 °F 57.9 °F 30.3 in Calm     68 % 0 in
18:47 68.2 °F 58.1 °F 30.3 in Calm     70 % 0 in
18:52 67.3 °F 57.6 °F 30.3 in Calm     71 % 0 in
18:57 66.2 °F 57.2 °F 30.3 in Calm     73 % 0 in
19:02 65.7 °F 57.2 °F 30.3 in Calm     74 % 0 in
19:07 64.9 °F 56.8 °F 30.3 in Calm     75 % 0 in
19:12 64.2 °F 57.2 °F 30.3 in Calm     78 % 0 in
19:17 63.3 °F 56.7 °F 30.3 in Calm     79 % 0 in
19:22 63 °F 56.7 °F 30.3 in Calm     80 % 0 in
19:27 63 °F 56.7 °F 30.3 in Calm     80 % 0 in
19:37 62.1 °F 56.5 °F 30.3 in WNW 1 mph 1 mph 82 % 0 in
19:42 61.3 °F 56.8 °F 30.3 in WNW 1 mph 1 mph 85 % 0 in
19:47 61.2 °F 56.7 °F 30.3 in Calm   1 mph 85 % 0 in
19:52 61.3 °F 56.5 °F 30.3 in North 1 mph 2 mph 84 % 0 in
19:57 61.2 °F 56.3 °F 30.3 in Calm   2 mph 84 % 0 in
20:02 61 °F 56.1 °F 30.3 in Calm   2 mph 84 % 0 in
20:12 60.4 °F 55.9 °F 30.3 in NNW 2 mph 2 mph 85 % 0 in
20:17 60.6 °F 55.8 °F 30.3 in NNW 2 mph 2 mph 84 % 0 in
20:22 60.4 °F 55.2 °F 30.3 in Calm   2 mph 83 % 0 in
20:27 60.1 °F 55.6 °F 30.3 in NW 1 mph 2 mph 85 % 0 in
20:37 59.7 °F 55.2 °F 30.3 in NW 2 mph 2 mph 85 % 0 in
20:47 59.5 °F 55 °F 30.3 in Calm   2 mph 85 % 0 in
20:52 59.4 °F 55.2 °F 30.3 in NNW 1 mph 2 mph 86 % 0 in
20:57 59.2 °F 55 °F 30.3 in Calm   2 mph 86 % 0 in
21:02 58.8 °F 54.7 °F 30.3 in Calm   2 mph 86 % 0 in
21:12 58.6 °F 55 °F 30.3 in Calm   1 mph 88 % 0 in
21:17 58.8 °F 55 °F 30.3 in Calm   1 mph 87 % 0 in
21:22 59 °F 55.2 °F 30.3 in Calm   1 mph 87 % 0 in
21:32 58.8 °F 54.7 °F 30.3 in WNW 1 mph 1 mph 86 % 0 in
21:37 57.9 °F 54.7 °F 30.3 in Calm   1 mph 89 % 0 in
21:42 57.6 °F 54.3 °F 30.3 in Calm   1 mph 89 % 0 in
21:47 57.2 °F 54.7 °F 30.3 in Calm   2 mph 91 % 0 in
21:52 57.4 °F 54.9 °F 30.3 in Calm   2 mph 91 % 0 in
21:57 57.4 °F 54.5 °F 30.3 in Calm   1 mph 90 % 0 in
22:02 57.6 °F 54.7 °F 30.3 in North 1 mph 1 mph 90 % 0 in
22:12 57.6 °F 54.7 °F 30.3 in Calm   1 mph 90 % 0 in
22:22 57.4 °F 54.1 °F 30.3 in Calm   1 mph 89 % 0 in
22:32 56.5 °F 54 °F 30.3 in WNW 1 mph 2 mph 91 % 0 in
22:37 55.9 °F 53.6 °F 30.3 in WNW 1 mph 2 mph 92 % 0 in
22:42 55.6 °F 53.2 °F 30.3 in WNW 1 mph 2 mph 92 % 0 in
22:52 55.9 °F 54.3 °F 30.3 in NNW 1 mph 2 mph 94 % 0 in
22:57 56.1 °F 54.1 °F 30.3 in Calm   2 mph 93 % 0 in
23:02 55.9 °F 53.6 °F 30.3 in Calm   2 mph 92 % 0 in
23:12 56.1 °F 54.1 °F 30.3 in Calm   1 mph 93 % 0 in
23:17 56.1 °F 54.1 °F 30.3 in Calm   1 mph 93 % 0 in
23:22 56.1 °F 54.1 °F 30.3 in Calm   1 mph 93 % 0 in
23:32 56.1 °F 53.8 °F 30.3 in Calm   1 mph 92 % 0 in
23:37 55.9 °F 53.6 °F 30.3 in Calm   1 mph 92 % 0 in
23:42 55.4 °F 53.1 °F 30.3 in Calm     92 % 0 in
23:47 55.2 °F 52.9 °F 30.3 in WNW 2 mph   92 % 0 in
23:52 54.9 °F 52.9 °F 30.3 in WNW 1 mph 2 mph 93 % 0 in
23:57 54.3 °F 52.3 °F 30.3 in WNW 1 mph 2 mph 93 % 0 in
Meteo18
Compliments of Weather Underground - 4 mb

Script developed by  Jim McMurry - jmcmurry@mwt.net Adapted for the template by  Wim van der Kuil - Leuven-Template.eu

You find our weather info also at:

European Weather Network

Weather Underground

Equipment we use:

Weather-station
Davis Vue

Weather-program
Meteohub

Weather-server
Raspberry PI 2 B+

Provider
1 and 1

Davis Vue

Meteohub

Raspberry PI 2 B+

1 and 1